Sheridan, Michigan
Current Conditions -  °F | °C
As of 1:33 PM on Monday 26 Jan 2015 (Local Time) from KY70 Reporting Station
Broken Clouds Broken Clouds  
Wind Chill: 15°   Ceiling: 9000
Heat Index: 21°   Visibility: 10mi
Dew Point: 10°   Wind: 5mph
Humidity: 61%   Direction: 110°ESE
Pressure: 29.91"   Gusts: NA
Location:  43.21°N, 85.07°W
Report Text: KY70 261833Z AUTO 11004KT 10SM BKN090 M06/M12 A2991 RMK AO2 T10601125
Loading
Personal Weather Stations






























Interactive Weather Map New forecast layout! Learn more

10-Day Weather Forecast

Advertisements
Track Severe Weather on mobile